AirNav   Everest Fuels
 
 1159 users online  

M24 Dean Griffin Memorial Airport
Wiggins, Mississippi, USA

GOING TO WIGGINS?


FAA INFORMATION EFFECTIVE 05 DECEMBER 2019

Location

FAA Identifier: M24
Lat/Long: 30-50-34.8000N 089-09-41.4000W
30-50.580000N 089-09.690000W
30.8430000,-89.1615000
(estimated)
Elevation: 273 ft. / 83.2 m (surveyed)
Variation: 02E (1985)
From city: 1 mile W of WIGGINS, MS
Time zone: UTC -6 (UTC -5 during Daylight Saving Time)
Zip code: 39577

Airport Operations

Airport use: Open to the public
Control tower: no
ARTCC: HOUSTON CENTER
FSS: GREENWOOD FLIGHT SERVICE STATION
NOTAMs facility: GWO (NOTAM-D service available)
Attendance: 0800-1700
Wind indicator: lighted
Segmented circle: no
Lights: ACTVT MIRL RWY 17/35 - CTAF. PAPI RWY 17 & 35 OPRS CONSLY.
Beacon: white-green (lighted land airport)
Operates sunset to sunrise.

Airport Communications

CTAF/UNICOM: 122.8

Nearby radio navigation aids

VOR radial/distance  VOR name  Freq  Var
GPTr349/26.5GULFPORT VORTAC109.0002E
PCUr055/33.9PICAYUNE VOR/DME112.2005E
LBYr160/35.7EATON VORTAC110.6005E
GCVr241/38.0GREENE COUNTY VORTAC115.7005E

 
NDB name  Hdg/Dist  Freq  Var  ID
BOGALUSA094/36.235300WGVB --. ...- -...

Airport Services

Fuel available: 100LL
FUEL AVBL 24/7 WITH CREDIT CARD.
Parking: tiedowns
Airframe service: NONE
Bottled oxygen: NONE
Bulk oxygen: NONE

Runway Information

Runway 17/35

Dimensions: 3500 x 75 ft. / 1067 x 23 m
Surface: asphalt, in fair condition
Weight bearing capacity: 
Single wheel: 20.0
Runway edge lights: medium intensity
Gradient: N
RUNWAY 17  RUNWAY 35
Latitude: 30-50.866725N30-50.293587N
Longitude: 089-09.729418W089-09.649293W
Elevation: 273.0 ft.245.3 ft.
Traffic pattern: leftleft
Runway heading: 171 magnetic, 173 true351 magnetic, 353 true
Displaced threshold: 500 ft.no
Markings: basic, in fair conditionbasic, in fair condition
Visual slope indicator: 2-light PAPI on left (3.00 degrees glide path)2-light PAPI on left (3.00 degrees glide path)
Touchdown point: yes, no lightsyes, no lights
Obstructions: 41 ft. tree, 1200 ft. from runway, 150 ft. left of centerline, 24:1 slope to clear
APPROACH SLOPE 36:1 TO THE DSPLCD THLD.
62 ft. trees, 1440 ft. from runway, 20:1 slope to clear

Airport Ownership and Management from official FAA records

Ownership: Publicly-owned
Owner: CITY OF WIGGINS-STONE CO
117 FIRST STREET
WIGGINS, MS 39577
Phone 601-928-7221
Manager: DURON HATTEN
P.O. BOX 219
WIGGINS, MS 39577
Phone 601-928-7221

Airport Operational Statistics

Aircraft based on the field: 9
Single engine airplanes: 8
Ultralights: 1
    
Aircraft operations: avg 35/day *
51% local general aviation
45% transient general aviation
4% military
* for 12-month period ending 22 May 2019

Additional Remarks

FOR CD CTC GULFPORT APCH AT 228-265-6151, WHEN APCH CLSD CTC HOUSTON ARTCC AT 281-230-5622.

Instrument Procedures

There are no published instrument procedures at M24.

Some nearby airports with instrument procedures:

M13 - Poplarville-Pearl River County Airport (18 nm W)
KHBG - Hattiesburg Bobby L Chain Municipal Airport (26 nm N)
KGPT - Gulfport-Biloxi International Airport (27 nm S)
KBIX - Keesler Air Force Base (29 nm SE)
KHSA - Stennis International Airport (32 nm SW)
 
Loc | Ops | Rwys | IFR | FBO | Links
Com | Nav | Svcs | Stats | Notes
Area around M24 (Dean Griffin Memorial Airport)
 
Road maps at: MapQuest Bing Google
 
Aerial photo
No photo
 
Sectional chart

 
Airport distance calculator
Flying to Dean Griffin Memorial Airport? Find the distance to fly.

From to M24

Sunrise and sunset
Times for 08-Dec-2019
 Local
(UTC-6)
 Zulu
(UTC)
Morning civil twilight06:1712:17
Sunrise06:4312:43
Sunset16:5422:54
Evening civil twilight17:2023:20

Current date and time
Zulu (UTC)  08-Dec-2019 14:23:19
Local (UTC-6)  08-Dec-2019 08:23:19
 
METAR
KHBG 
26nm N 
081353Z AUTO 00000KT 9SM OVC007 12/11 A3017 RMK AO2 SLP215 T01220106
KGPT 
26nm S 
081353Z 02003KT 10SM OVC013 14/11 A3015 RMK AO2 SLP209 T01390106
KBIX 
29nm SE 
081356Z AUTO 36004KT 10SM OVC013 13/11 A3015 RMK AO2 CIG 009V013 SLPNO T01340114
KHSA 
32nm SW 
081250Z 00000KT 7SM BKN018 OVC043 11/10 A3015
KBXA 
36nm W 
081355Z AUTO 00000KT 10SM OVC016 13/11 A3018 RMK AO2 T01250105
KPIB 
38nm N 
081356Z AUTO 00000KT 7SM OVC008 11/11 A3018 RMK AO2 SLP221 T01110106 PNO $
KLUL 
38nm N 
081355Z AUTO 00000KT 10SM OVC012 11/10 A3017 RMK A02 T01120104
KPQL 
40nm SE 
081353Z 00000KT 10SM SCT015 BKN029 OVC065 16/12 A3015 RMK AO2 SLP210 T01560122
K0R0 
43nm NW 
081355Z AUTO 00000KT 4SM BR BKN012 BKN018 BKN026 10/09 A3022 RMK AO2
KASD 
47nm SW 
081353Z AUTO 00000KT 8SM FEW020 13/11 A3016 RMK AO2 SLP213 T01280106
TAF
KHBG 
26nm N 
081122Z 0812/0912 14005KT P6SM BKN015 OVC025 FM082200 17003KT P6SM BKN050 FM090400 17003KT P6SM OVC015 FM090700 17003KT 5SM BR OVC008
KGPT 
26nm S 
081125Z 0812/0912 00000KT P6SM OVC020 FM081800 00000KT P6SM SCT030 FM091000 00000KT 1SM BR BKN002
KBIX 
29nm SE 
081000Z 0810/0916 02006KT 8000 BR BKN020 QNH3011INS BECMG 0815/0816 03006KT 9999 NSW BKN015 QNH3007INS BECMG 0822/0823 VRB06KT 6000 BR SCT005 OVC010 QNH3003INS BECMG 0905/0906 16006KT 4800 BR OVC005 QNH2999INS TX18/0820Z TN12/0812Z
NOTAMs
Click for the latest NOTAMs
NOTAMs are issued by the DoD/FAA and will open in a separate window not controlled by AirNav.

 

 
 

FBO, Fuel Providers, and Aircraft Ground Support

  
 Business Name 
 
 Contact 
 
 Services / Description 
 
Fuel Prices
 
Comments
  
Dean Griffin Memorial Airport 601-928-6495
no information available

If you are affiliated with Dean Griffin Memorial Airport and would like to show here your services, contact info, web link, logo, and more, click here
100LL
SS $4.50 
 Updated 04-Dec-2019
 
   write
SS=Self service
Update Fuel Prices
 

Would you like to see your business listed on this page?

 If your business provides an interesting product or service to pilots, flight crews, aircraft, or users of the Dean Griffin Memorial Airport, you should consider listing it here.  To start the listing process, click on the button below
 
Add a business
 

Other Pages about Dean Griffin Memorial Airport

Update a link
 
Copyright © AirNav, LLC. All rights reserved. Privacy Policy  Contact